Terminal Aerodrome Forecast
Issued by NWS

Home | Current Version | Previous Version | Graphics & Text | Print | Product List | Glossary On
Versions: 1 2 3 4 5 6 7 8 9 10 11 12 13 14 15 16 17 18 19 20 21
112
FTUS43 KTOP 102323
TAFFOE
TAF
KFOE 102323Z 1100/1124 33011KT P6SM SKC
     FM110400 02007KT P6SM SCT030 SCT130
     FM111400 05007KT P6SM BKN030=

USA.gov is the U.S. government's official web portal to all federal, state and local government web resources and services.